Time;durP1;ratioP1;P1;durP2;ratioP2;P2;SDS_P1;SDS_P2;PMS_P1;PMS_P2;Temp;Humidity;BMP_temperature;BMP_pressure;BME280_temperature;BME280_humidity;BME280_pressure;Samples;Min_cycle;Max_cycle;Signal;HPM_P1;HPM_P2
2024/04/04 00:01:14;;;;;;;55.67;2.50;;;;;;;;;;5073386;28;20480;-67
2024/04/04 00:03:41;;;;;;;56.57;2.40;;;;;;;;;;5073694;28;20484;-67
2024/04/04 00:06:07;;;;;;;56.77;2.50;;;;;;;;;;5074431;28;20540;-67
2024/04/04 00:08:34;;;;;;;58.53;2.37;;;;;;;;;;5074012;28;20459;-67
2024/04/04 00:11:10;;;;;;;58.33;2.50;;;;;;;;;;5073146;28;20535;-67
2024/04/04 00:13:37;;;;;;;55.90;2.17;;;;;;;;;;5073509;28;21009;-67
2024/04/04 00:16:04;;;;;;;58.60;3.87;;;;;;;;;;5073740;28;20476;-67
2024/04/04 00:18:32;;;;;;;57.80;2.33;;;;;;;;;;5073631;28;21026;-67
2024/04/04 00:20:58;;;;;;;58.37;3.83;;;;;;;;;;5073431;28;20454;-67
2024/04/04 00:23:26;;;;;;;56.60;2.53;;;;;;;;;;5073918;28;20483;-66
2024/04/04 00:25:52;;;;;;;57.20;2.80;;;;;;;;;;5073533;28;20819;-67
2024/04/04 00:28:19;;;;;;;56.53;2.70;;;;;;;;;;5073710;28;20460;-67
2024/04/04 00:30:45;;;;;;;56.57;2.47;;;;;;;;;;5073430;28;20535;-66
2024/04/04 00:33:12;;;;;;;57.90;2.40;;;;;;;;;;5073259;28;20447;-66
2024/04/04 00:35:40;;;;;;;56.87;2.43;;;;;;;;;;5073937;28;21027;-67
2024/04/04 00:38:07;;;;;;;55.27;2.20;;;;;;;;;;5073707;28;20472;-67
2024/04/04 00:40:37;;;;;;;55.27;2.20;;;;;;;;;;5073093;28;20786;-66
2024/04/04 00:43:04;;;;;;;58.20;2.43;;;;;;;;;;5072942;28;20932;-67
2024/04/04 00:45:30;;;;;;;58.60;2.27;;;;;;;;;;5074799;28;20524;-67
2024/04/04 00:47:59;;;;;;;55.57;1.90;;;;;;;;;;5078519;28;20468;-67
2024/04/04 00:50:25;;;;;;;58.43;2.40;;;;;;;;;;5077962;28;20454;-68
2024/04/04 00:52:53;;;;;;;56.37;2.53;;;;;;;;;;5078321;28;20482;-68
2024/04/04 00:55:20;;;;;;;56.00;2.30;;;;;;;;;;5078070;28;21008;-68
2024/04/04 00:57:47;;;;;;;56.37;2.30;;;;;;;;;;5077719;28;20844;-68
2024/04/04 01:00:13;;;;;;;60.27;2.53;;;;;;;;;;5077672;28;20896;-68
2024/04/04 01:02:40;;;;;;;56.00;2.30;;;;;;;;;;5078550;28;20484;-68
2024/04/04 01:05:07;;;;;;;57.00;2.30;;;;;;;;;;5077879;28;20929;-68
2024/04/04 01:07:34;;;;;;;57.33;2.67;;;;;;;;;;5076840;28;20447;-68
2024/04/04 01:10:05;;;;;;;56.57;2.13;;;;;;;;;;5076499;28;20514;-67
2024/04/04 01:12:32;;;;;;;55.10;2.17;;;;;;;;;;5076310;28;20447;-68
2024/04/04 01:14:58;;;;;;;56.20;2.43;;;;;;;;;;5076191;28;20530;-67
2024/04/04 01:17:25;;;;;;;56.07;2.30;;;;;;;;;;5077025;28;20451;-68
2024/04/04 01:19:52;;;;;;;63.37;2.47;;;;;;;;;;5076003;28;20448;-68
2024/04/04 01:22:19;;;;;;;61.37;2.60;;;;;;;;;;5075952;28;20551;-68
2024/04/04 01:24:47;;;;;;;56.37;2.40;;;;;;;;;;5056546;28;20531;-68
2024/04/04 01:27:14;;;;;;;55.77;2.20;;;;;;;;;;5057343;28;20449;-67
2024/04/04 01:29:40;;;;;;;55.97;2.17;;;;;;;;;;5056954;28;20559;-68
2024/04/04 01:32:07;;;;;;;55.67;2.43;;;;;;;;;;5056875;28;20445;-68
2024/04/04 01:34:33;;;;;;;55.27;2.40;;;;;;;;;;5059405;28;21039;-68
2024/04/04 01:37:00;;;;;;;55.70;2.40;;;;;;;;;;5077511;28;21014;-68
2024/04/04 01:39:26;;;;;;;58.00;2.40;;;;;;;;;;5077183;28;20474;-68
2024/04/04 01:41:55;;;;;;;56.40;2.50;;;;;;;;;;5076894;28;20462;-68
2024/04/04 01:44:21;;;;;;;58.03;2.63;;;;;;;;;;5077021;28;20859;-68
2024/04/04 01:46:48;;;;;;;56.57;2.50;;;;;;;;;;5076915;28;20456;-68
2024/04/04 01:49:15;;;;;;;59.00;3.00;;;;;;;;;;5074420;28;20549;-67
2024/04/04 01:51:43;;;;;;;56.57;2.30;;;;;;;;;;5075131;28;20488;-68
2024/04/04 01:54:10;;;;;;;56.20;2.57;;;;;;;;;;5075543;28;20436;-68
2024/04/04 01:56:37;;;;;;;56.10;2.60;;;;;;;;;;5067649;28;20435;-68
2024/04/04 01:59:04;;;;;;;56.17;2.33;;;;;;;;;;5075446;28;20481;-68
2024/04/04 02:01:31;;;;;;;56.57;2.43;;;;;;;;;;5075049;28;20455;-67
2024/04/04 02:03:58;;;;;;;58.73;2.53;;;;;;;;;;5075489;28;20637;-68
2024/04/04 02:06:25;;;;;;;56.20;2.90;;;;;;;;;;5075398;28;20452;-68
2024/04/04 02:08:51;;;;;;;56.37;2.70;;;;;;;;;;5075540;28;20474;-68
2024/04/04 02:11:18;;;;;;;55.13;2.37;;;;;;;;;;5075039;28;20448;-68
2024/04/04 02:13:46;;;;;;;57.80;2.73;;;;;;;;;;5075290;28;20452;-68
2024/04/04 02:16:16;;;;;;;56.53;2.30;;;;;;;;;;5075228;28;20801;-68
2024/04/04 02:18:43;;;;;;;56.97;2.57;;;;;;;;;;5075675;28;20473;-69
2024/04/04 02:21:10;;;;;;;57.50;2.30;;;;;;;;;;5074512;28;20542;-68
2024/04/04 02:23:36;;;;;;;58.40;2.70;;;;;;;;;;5075015;28;20945;-68
2024/04/04 02:26:03;;;;;;;56.00;2.40;;;;;;;;;;5075222;28;20451;-66
2024/04/04 02:28:29;;;;;;;58.43;2.50;;;;;;;;;;5074946;28;20983;-67
2024/04/04 02:30:56;;;;;;;56.30;2.50;;;;;;;;;;5074343;28;20448;-68
2024/04/04 02:33:24;;;;;;;57.27;2.30;;;;;;;;;;5074590;28;20448;-67
2024/04/04 02:35:54;;;;;;;56.17;2.07;;;;;;;;;;5075193;28;20994;-68
2024/04/04 02:38:22;;;;;;;55.00;2.17;;;;;;;;;;5074662;28;20991;-68
2024/04/04 02:40:49;;;;;;;55.57;2.10;;;;;;;;;;5074126;28;20932;-68
2024/04/04 02:43:15;;;;;;;56.03;2.03;;;;;;;;;;5074513;28;21018;-67
2024/04/04 02:45:42;;;;;;;57.30;2.43;;;;;;;;;;5074546;28;20501;-67
2024/04/04 02:48:09;;;;;;;56.20;2.33;;;;;;;;;;5075483;28;20491;-67
2024/04/04 02:50:37;;;;;;;55.83;2.40;;;;;;;;;;5074668;28;20454;-67
2024/04/04 02:53:04;;;;;;;57.37;1.90;;;;;;;;;;5075090;28;20440;-67
2024/04/04 02:55:32;;;;;;;56.10;2.23;;;;;;;;;;5073336;28;20509;-67
2024/04/04 02:57:59;;;;;;;55.50;1.87;;;;;;;;;;5054614;28;20475;-67
2024/04/04 03:00:26;;;;;;;59.90;2.33;;;;;;;;;;5054291;28;20448;-67
2024/04/04 03:02:52;;;;;;;56.27;2.30;;;;;;;;;;5055239;28;20465;-67
2024/04/04 03:05:20;;;;;;;55.67;2.00;;;;;;;;;;5055939;28;20445;-67
2024/04/04 03:07:49;;;;;;;55.30;2.10;;;;;;;;;;5055770;28;20531;-67
2024/04/04 03:10:16;;;;;;;56.97;2.30;;;;;;;;;;5056299;28;20560;-67
2024/04/04 03:12:42;;;;;;;55.97;2.40;;;;;;;;;;5056479;28;20452;-67
2024/04/04 03:15:09;;;;;;;58.60;2.60;;;;;;;;;;5056294;28;20531;-67
2024/04/04 03:17:35;;;;;;;56.57;2.40;;;;;;;;;;5075327;28;20547;-67
2024/04/04 03:20:02;;;;;;;55.23;2.10;;;;;;;;;;5075862;28;20511;-67
2024/04/04 03:22:29;;;;;;;56.37;2.60;;;;;;;;;;5076247;28;20467;-67
2024/04/04 03:24:57;;;;;;;56.50;2.10;;;;;;;;;;5075880;28;20479;-67
2024/04/04 03:27:23;;;;;;;56.37;2.30;;;;;;;;;;5074794;28;20832;-66
2024/04/04 03:29:50;;;;;;;55.10;1.80;;;;;;;;;;5074760;28;20519;-67
2024/04/04 03:32:16;;;;;;;56.07;2.23;;;;;;;;;;5077236;28;20444;-66
2024/04/04 03:34:44;;;;;;;55.10;2.13;;;;;;;;;;5075553;28;20444;-67
2024/04/04 03:37:10;;;;;;;57.03;2.20;;;;;;;;;;5075656;28;20452;-67
2024/04/04 03:39:37;;;;;;;55.97;2.33;;;;;;;;;;5075179;28;20566;-67
2024/04/04 03:42:06;;;;;;;55.20;2.00;;;;;;;;;;5074362;28;20436;-67
2024/04/04 03:44:33;;;;;;;55.93;2.10;;;;;;;;;;5074406;28;20483;-67
2024/04/04 03:46:59;;;;;;;55.60;2.10;;;;;;;;;;5074486;28;20452;-67
2024/04/04 03:49:26;;;;;;;54.97;2.00;;;;;;;;;;5076151;28;20463;-67
2024/04/04 03:51:52;;;;;;;60.60;2.43;;;;;;;;;;5075363;28;20458;-67
2024/04/04 03:54:19;;;;;;;56.20;1.93;;;;;;;;;;5075161;28;20904;-67
2024/04/04 03:56:45;;;;;;;56.23;2.00;;;;;;;;;;5067235;28;20801;-67
2024/04/04 03:59:14;;;;;;;55.57;2.37;;;;;;;;;;5075351;28;20491;-67
2024/04/04 04:01:40;;;;;;;56.43;2.10;;;;;;;;;;5075292;28;20539;-67
2024/04/04 04:04:07;;;;;;;57.17;2.50;;;;;;;;;;5066913;28;20482;-67
2024/04/04 04:06:33;;;;;;;56.40;2.40;;;;;;;;;;5074138;28;20815;-67
2024/04/04 04:09:00;;;;;;;56.97;2.40;;;;;;;;;;5074647;28;20463;-67
2024/04/04 04:11:26;;;;;;;56.00;2.50;;;;;;;;;;5074496;28;20460;-67
2024/04/04 04:13:53;;;;;;;56.77;2.33;;;;;;;;;;5075058;28;20525;-67
2024/04/04 04:16:22;;;;;;;55.27;2.20;;;;;;;;;;5074973;28;20450;-67
2024/04/04 04:18:49;;;;;;;55.40;2.20;;;;;;;;;;5075599;28;20495;-67
2024/04/04 04:21:20;;;;;;;60.07;2.77;;;;;;;;;;5075867;28;20514;-67
2024/04/04 04:23:47;;;;;;;56.20;2.70;;;;;;;;;;5076123;28;20765;-67
2024/04/04 04:26:14;;;;;;;59.40;2.50;;;;;;;;;;5075561;28;20940;-67
2024/04/04 04:28:40;;;;;;;56.77;2.20;;;;;;;;;;5075034;28;20476;-67
2024/04/04 04:31:22;;;;;;;56.77;2.60;;;;;;;;;;5074183;28;20448;-67
2024/04/04 04:33:49;;;;;;;57.97;2.40;;;;;;;;;;5074983;28;20519;-67
2024/04/04 04:36:17;;;;;;;55.57;2.13;;;;;;;;;;5076313;28;20448;-67
2024/04/04 04:38:43;;;;;;;58.70;2.50;;;;;;;;;;5077519;28;20474;-67
2024/04/04 04:41:10;;;;;;;55.40;2.37;;;;;;;;;;5076641;28;20530;-67
2024/04/04 04:43:37;;;;;;;57.77;2.60;;;;;;;;;;5075857;28;20484;-67
2024/04/04 04:46:05;;;;;;;56.63;2.10;;;;;;;;;;5077068;28;20451;-67
2024/04/04 04:48:31;;;;;;;56.00;2.50;;;;;;;;;;5076263;28;20494;-67
2024/04/04 04:50:59;;;;;;;55.67;2.60;;;;;;;;;;5075129;28;20444;-67
2024/04/04 04:53:25;;;;;;;55.87;2.47;;;;;;;;;;5074847;28;20470;-67
2024/04/04 04:55:53;;;;;;;55.50;1.90;;;;;;;;;;5075343;28;20451;-67
2024/04/04 04:58:19;;;;;;;56.93;2.20;;;;;;;;;;5075315;28;20529;-67
2024/04/04 05:00:47;;;;;;;59.03;2.23;;;;;;;;;;5074149;28;20476;-67
2024/04/04 05:03:14;;;;;;;58.00;2.50;;;;;;;;;;5074403;28;20455;-67
2024/04/04 05:05:41;;;;;;;55.50;2.20;;;;;;;;;;5074353;28;20501;-67
2024/04/04 05:08:09;;;;;;;55.57;2.40;;;;;;;;;;5074056;28;20479;-67
2024/04/04 05:10:36;;;;;;;56.90;2.30;;;;;;;;;;5073807;28;20452;-67
2024/04/04 05:13:02;;;;;;;57.13;2.70;;;;;;;;;;5073657;28;20444;-68
2024/04/04 05:15:30;;;;;;;56.17;2.27;;;;;;;;;;5073886;28;20523;-68
2024/04/04 05:17:56;;;;;;;57.07;2.30;;;;;;;;;;5070079;28;20547;-68
2024/04/04 05:20:23;;;;;;;56.63;2.23;;;;;;;;;;5054383;28;20959;-67
2024/04/04 05:22:49;;;;;;;56.10;2.30;;;;;;;;;;5054854;28;20449;-67
2024/04/04 05:25:17;;;;;;;57.10;2.37;;;;;;;;;;5053656;28;20476;-67
2024/04/04 05:27:44;;;;;;;58.47;2.40;;;;;;;;;;5052784;28;20468;-68
2024/04/04 05:30:14;;;;;;;56.47;2.30;;;;;;;;;;5054677;28;20937;-66
2024/04/04 05:32:40;;;;;;;55.60;2.43;;;;;;;;;;5054568;28;20456;-67
2024/04/04 05:35:07;;;;;;;56.50;2.27;;;;;;;;;;5057715;28;20453;-66
2024/04/04 05:37:33;;;;;;;56.57;2.13;;;;;;;;;;5057881;28;20543;-67
2024/04/04 05:40:01;;;;;;;59.20;2.40;;;;;;;;;;5058189;28;20456;-66
2024/04/04 05:42:29;;;;;;;56.00;2.20;;;;;;;;;;5056718;28;20794;-67
2024/04/04 05:44:56;;;;;;;55.60;2.00;;;;;;;;;;5056860;28;20487;-67
2024/04/04 05:47:22;;;;;;;57.50;2.20;;;;;;;;;;5057190;28;20471;-66
2024/04/04 05:49:49;;;;;;;55.90;2.40;;;;;;;;;;5056579;28;20957;-67
2024/04/04 05:52:15;;;;;;;55.90;2.40;;;;;;;;;;5056570;28;20848;-67
2024/04/04 05:54:42;;;;;;;54.87;2.00;;;;;;;;;;5057200;28;20444;-66
2024/04/04 05:57:08;;;;;;;56.70;2.03;;;;;;;;;;5056463;28;20445;-67
2024/04/04 05:59:37;;;;;;;56.00;2.53;;;;;;;;;;5057389;28;20465;-66
2024/04/04 06:02:03;;;;;;;60.03;2.27;;;;;;;;;;5056530;28;20815;-67
2024/04/04 06:04:31;;;;;;;57.27;2.60;;;;;;;;;;5056683;28;20492;-67
2024/04/04 06:06:57;;;;;;;58.00;2.03;;;;;;;;;;5069643;28;20440;-66
2024/04/04 06:09:24;;;;;;;55.97;2.10;;;;;;;;;;5076802;28;20832;-67
2024/04/04 06:11:50;;;;;;;58.90;2.10;;;;;;;;;;5075876;28;20440;-67
2024/04/04 06:14:17;;;;;;;56.70;2.33;;;;;;;;;;5076625;28;20781;-67
2024/04/04 06:16:45;;;;;;;56.43;2.57;;;;;;;;;;5076946;28;20473;-67
2024/04/04 06:19:12;;;;;;;57.90;2.47;;;;;;;;;;5076216;28;20564;-67
2024/04/04 06:21:38;;;;;;;55.90;2.20;;;;;;;;;;5075540;28;20505;-68
2024/04/04 06:24:06;;;;;;;57.13;2.17;;;;;;;;;;5075783;28;20759;-67
2024/04/04 06:26:32;;;;;;;56.17;2.37;;;;;;;;;;5075666;28;20444;-67
2024/04/04 06:28:59;;;;;;;59.60;2.70;;;;;;;;;;5075974;28;20468;-67
2024/04/04 06:31:25;;;;;;;58.40;2.60;;;;;;;;;;5075953;28;20456;-66
2024/04/04 06:33:54;;;;;;;55.47;2.07;;;;;;;;;;5075978;28;20455;-67
2024/04/04 06:36:20;;;;;;;56.67;2.40;;;;;;;;;;5076059;28;20506;-67
2024/04/04 06:38:47;;;;;;;57.70;2.67;;;;;;;;;;5075583;28;20468;-67
2024/04/04 06:41:13;;;;;;;57.60;2.50;;;;;;;;;;5075110;28;20554;-68
2024/04/04 06:43:41;;;;;;;59.67;2.60;;;;;;;;;;5075334;28;20474;-67
2024/04/04 06:46:07;;;;;;;60.73;2.40;;;;;;;;;;5075852;28;20447;-67
2024/04/04 06:48:40;;;;;;;57.10;2.70;;;;;;;;;;5076075;28;20491;-67
2024/04/04 06:51:08;;;;;;;56.40;2.37;;;;;;;;;;5069490;28;20463;-67
2024/04/04 06:53:35;;;;;;;58.63;2.90;;;;;;;;;;5075972;28;20497;-69
2024/04/04 06:56:01;;;;;;;58.40;2.77;;;;;;;;;;5077386;28;20470;-69
2024/04/04 06:58:28;;;;;;;57.77;3.00;;;;;;;;;;5076506;28;20476;-68
2024/04/04 07:00:57;;;;;;;57.87;2.80;;;;;;;;;;5075593;28;20536;-67
2024/04/04 07:03:24;;;;;;;59.97;2.77;;;;;;;;;;5075990;28;20455;-68
2024/04/04 07:05:51;;;;;;;58.37;3.07;;;;;;;;;;5075981;28;20488;-68
2024/04/04 07:08:19;;;;;;;57.80;2.67;;;;;;;;;;5075083;28;20467;-67
2024/04/04 07:10:45;;;;;;;57.63;2.50;;;;;;;;;;5074658;28;20588;-68
2024/04/04 07:13:13;;;;;;;62.67;2.97;;;;;;;;;;5075394;28;20967;-68
2024/04/04 07:15:39;;;;;;;60.20;2.37;;;;;;;;;;5075121;28;20448;-68
2024/04/04 07:18:09;;;;;;;58.17;3.10;;;;;;;;;;5074625;28;20559;-67
2024/04/04 07:20:35;;;;;;;57.57;2.40;;;;;;;;;;5057825;28;20972;-68
2024/04/04 07:23:02;;;;;;;59.60;2.60;;;;;;;;;;5060360;28;20447;-68
2024/04/04 07:25:30;;;;;;;57.87;2.50;;;;;;;;;;5076009;28;20498;-68
2024/04/04 07:27:57;;;;;;;56.80;2.10;;;;;;;;;;5067203;28;20495;-68
2024/04/04 07:30:24;;;;;;;56.23;2.30;;;;;;;;;;5075080;28;20443;-68
2024/04/04 07:32:51;;;;;;;61.80;3.23;;;;;;;;;;5074761;28;21044;-68
2024/04/04 07:35:17;;;;;;;57.90;2.50;;;;;;;;;;5075741;28;20452;-68
2024/04/04 07:37:44;;;;;;;58.40;2.43;;;;;;;;;;5075729;28;20492;-68
2024/04/04 07:40:11;;;;;;;59.83;2.90;;;;;;;;;;5075006;28;20452;-68
2024/04/04 07:42:39;;;;;;;58.97;2.97;;;;;;;;;;5075514;28;20492;-69
2024/04/04 07:45:07;;;;;;;60.23;2.63;;;;;;;;;;5074897;28;20507;-69
2024/04/04 07:47:34;;;;;;;64.00;3.10;;;;;;;;;;5074925;28;20851;-69
2024/04/04 07:50:07;;;;;;;56.53;2.70;;;;;;;;;;5075190;28;20452;-68
2024/04/04 07:52:34;;;;;;;56.83;2.30;;;;;;;;;;5074463;28;20812;-68
2024/04/04 07:55:00;;;;;;;59.87;2.53;;;;;;;;;;5074858;28;20447;-69
2024/04/04 07:57:27;;;;;;;60.70;2.80;;;;;;;;;;5076722;28;20450;-67
2024/04/04 07:59:55;;;;;;;61.90;3.20;;;;;;;;;;5074512;28;20458;-66
2024/04/04 08:02:23;;;;;;;56.60;2.60;;;;;;;;;;5072577;28;20509;-68
2024/04/04 08:04:49;;;;;;;58.87;2.50;;;;;;;;;;5075162;28;20480;-68
2024/04/04 08:07:17;;;;;;;58.67;2.93;;;;;;;;;;5075483;28;20502;-67
2024/04/04 08:09:43;;;;;;;59.40;2.80;;;;;;;;;;5073743;28;20544;-67
2024/04/04 08:12:10;;;;;;;60.30;2.67;;;;;;;;;;5069434;28;20502;-68
2024/04/04 08:14:36;;;;;;;59.87;3.00;;;;;;;;;;5070722;28;20446;-67
2024/04/04 08:17:05;;;;;;;57.57;2.50;;;;;;;;;;5074853;28;20482;-68
2024/04/04 08:19:31;;;;;;;59.27;2.70;;;;;;;;;;5075688;28;20528;-67
2024/04/04 08:21:58;;;;;;;58.13;2.83;;;;;;;;;;5074162;28;20501;-67
2024/04/04 08:24:25;;;;;;;66.10;3.10;;;;;;;;;;5074912;28;20547;-67
2024/04/04 08:26:52;;;;;;;60.03;2.87;;;;;;;;;;5074981;28;20972;-68
2024/04/04 08:29:18;;;;;;;57.50;2.63;;;;;;;;;;5074493;28;20524;-67
2024/04/04 08:31:45;;;;;;;57.23;3.10;;;;;;;;;;5074333;28;20942;-67
2024/04/04 08:34:13;;;;;;;56.60;2.67;;;;;;;;;;5074599;28;20515;-67
2024/04/04 08:36:40;;;;;;;57.87;2.50;;;;;;;;;;5074021;28;20459;-68
2024/04/04 08:39:08;;;;;;;58.90;2.93;;;;;;;;;;5074208;28;20555;-68
2024/04/04 08:41:35;;;;;;;65.60;3.57;;;;;;;;;;5073679;28;21059;-67
2024/04/04 08:44:03;;;;;;;62.50;4.40;;;;;;;;;;5073976;28;20530;-67
2024/04/04 08:46:32;;;;;;;57.40;2.70;;;;;;;;;;5074215;28;20459;-68
2024/04/04 08:48:58;;;;;;;59.60;2.40;;;;;;;;;;5073854;28;20487;-68
2024/04/04 08:51:27;;;;;;;58.17;2.83;;;;;;;;;;5073848;28;20455;-67
2024/04/04 08:53:53;;;;;;;56.73;2.70;;;;;;;;;;5073756;28;20463;-68
2024/04/04 08:56:20;;;;;;;59.20;2.83;;;;;;;;;;5073909;28;20450;-68
2024/04/04 08:58:46;;;;;;;57.77;2.40;;;;;;;;;;5073632;28;20586;-67
2024/04/04 09:01:13;;;;;;;60.20;2.67;;;;;;;;;;5073250;28;20538;-68
2024/04/04 09:03:42;;;;;;;60.87;2.70;;;;;;;;;;5073376;28;20470;-67
2024/04/04 09:06:09;;;;;;;61.10;2.57;;;;;;;;;;5074012;28;20567;-68
2024/04/04 09:08:37;;;;;;;57.60;2.43;;;;;;;;;;5076189;28;20554;-68
2024/04/04 09:11:05;;;;;;;59.67;2.73;;;;;;;;;;5077530;28;20447;-67
2024/04/04 09:13:31;;;;;;;59.43;2.60;;;;;;;;;;5078182;28;20448;-67
2024/04/04 09:16:01;;;;;;;58.47;2.90;;;;;;;;;;5078082;28;20497;-68
2024/04/04 09:18:28;;;;;;;59.93;4.63;;;;;;;;;;5078154;28;20468;-67
2024/04/04 09:20:59;;;;;;;60.40;2.33;;;;;;;;;;5077850;28;20447;-68
2024/04/04 09:23:25;;;;;;;60.90;2.93;;;;;;;;;;5077314;28;20928;-67
2024/04/04 09:25:53;;;;;;;58.90;2.60;;;;;;;;;;5077535;28;20487;-68
2024/04/04 09:28:19;;;;;;;58.87;2.60;;;;;;;;;;5078174;28;20580;-67
2024/04/04 09:30:49;;;;;;;57.27;2.30;;;;;;;;;;5077229;28;20479;-67
2024/04/04 09:33:18;;;;;;;58.90;2.63;;;;;;;;;;5076695;28;20457;-67
2024/04/04 09:35:47;;;;;;;58.00;2.70;;;;;;;;;;5077379;28;20451;-67
2024/04/04 09:38:14;;;;;;;58.37;2.47;;;;;;;;;;5077032;28;20481;-67
2024/04/04 09:40:43;;;;;;;57.90;2.70;;;;;;;;;;5076615;28;20447;-67
2024/04/04 09:43:10;;;;;;;59.70;2.40;;;;;;;;;;5076786;28;20451;-67
2024/04/04 09:45:39;;;;;;;60.80;3.13;;;;;;;;;;5076750;28;20479;-67
2024/04/04 09:48:05;;;;;;;58.27;2.50;;;;;;;;;;5077019;28;20463;-67
2024/04/04 09:50:33;;;;;;;57.00;2.70;;;;;;;;;;5076262;28;20550;-67
2024/04/04 09:53:00;;;;;;;60.50;2.60;;;;;;;;;;5076030;28;20452;-67
2024/04/04 09:55:27;;;;;;;58.43;2.80;;;;;;;;;;5075873;28;20476;-67
2024/04/04 09:57:55;;;;;;;56.27;2.40;;;;;;;;;;5068216;28;20921;-67
2024/04/04 10:00:27;;;;;;;60.30;2.83;;;;;;;;;;5076081;28;20439;-67
2024/04/04 10:02:54;;;;;;;58.10;3.10;;;;;;;;;;5057783;28;20949;-68
2024/04/04 10:05:22;;;;;;;59.20;2.73;;;;;;;;;;5056336;28;20480;-68
2024/04/04 10:07:49;;;;;;;57.97;2.90;;;;;;;;;;5057809;28;20479;-68
2024/04/04 10:10:19;;;;;;;58.67;2.50;;;;;;;;;;5056463;28;20440;-68
2024/04/04 10:12:45;;;;;;;57.20;2.43;;;;;;;;;;5057153;28;20453;-68
2024/04/04 10:15:17;;;;;;;58.17;2.57;;;;;;;;;;5057130;28;20524;-67
2024/04/04 10:17:49;;;;;;;57.10;2.30;;;;;;;;;;5057036;28;20533;-68
2024/04/04 10:20:17;;;;;;;57.87;2.73;;;;;;;;;;5057342;28;20488;-68
2024/04/04 10:22:43;;;;;;;60.13;3.37;;;;;;;;;;5057848;28;20971;-68
2024/04/04 10:25:10;;;;;;;58.30;2.60;;;;;;;;;;5077627;28;20643;-67
2024/04/04 10:27:37;;;;;;;58.10;2.60;;;;;;;;;;5078265;28;20448;-68
2024/04/04 10:30:05;;;;;;;60.83;2.50;;;;;;;;;;5076887;28;20813;-68
2024/04/04 10:32:31;;;;;;;58.40;2.57;;;;;;;;;;5077717;28;20971;-68
2024/04/04 10:35:03;;;;;;;57.67;2.30;;;;;;;;;;5076232;28;20808;-68
2024/04/04 10:37:30;;;;;;;56.27;2.50;;;;;;;;;;5077864;28;20868;-68
2024/04/04 10:39:57;;;;;;;56.43;2.40;;;;;;;;;;5077142;28;20443;-68
2024/04/04 10:42:23;;;;;;;58.10;2.83;;;;;;;;;;5076658;28;20455;-67
2024/04/04 10:44:51;;;;;;;61.00;2.80;;;;;;;;;;5077599;28;20479;-68
2024/04/04 10:47:17;;;;;;;57.43;2.60;;;;;;;;;;5077800;28;20526;-68
2024/04/04 10:49:44;;;;;;;58.67;2.30;;;;;;;;;;5076712;28;20476;-67
2024/04/04 10:52:12;;;;;;;56.67;2.67;;;;;;;;;;5073186;28;20459;-68
2024/04/04 10:54:39;;;;;;;56.80;2.73;;;;;;;;;;5072986;28;20513;-68
2024/04/04 10:57:05;;;;;;;59.07;2.60;;;;;;;;;;5076752;28;20475;-68
2024/04/04 10:59:33;;;;;;;57.77;2.37;;;;;;;;;;5076895;28;20527;-68
2024/04/04 11:02:02;;;;;;;58.17;2.80;;;;;;;;;;5077041;28;20538;-68
2024/04/04 11:04:31;;;;;;;58.17;2.60;;;;;;;;;;5076701;28;20459;-68
2024/04/04 11:06:57;;;;;;;59.00;2.57;;;;;;;;;;5075973;28;20475;-67
2024/04/04 11:09:27;;;;;;;57.10;2.27;;;;;;;;;;5070606;28;20495;-68
2024/04/04 11:11:54;;;;;;;59.83;2.43;;;;;;;;;;5056582;28;20544;-68
2024/04/04 11:14:22;;;;;;;56.80;2.37;;;;;;;;;;5057445;28;20453;-68
2024/04/04 11:16:49;;;;;;;57.67;2.73;;;;;;;;;;5056281;28;20985;-68
2024/04/04 11:19:20;;;;;;;56.50;2.27;;;;;;;;;;5056406;28;20472;-68
2024/04/04 11:21:47;;;;;;;56.97;2.67;;;;;;;;;;5063806;28;20824;-69
2024/04/04 11:24:14;;;;;;;58.57;3.80;;;;;;;;;;5072092;28;20455;-68
2024/04/04 11:26:42;;;;;;;59.50;2.70;;;;;;;;;;5076653;28;20566;-68
2024/04/04 11:29:09;;;;;;;61.87;2.67;;;;;;;;;;5076279;28;20727;-68
2024/04/04 11:31:36;;;;;;;59.80;2.57;;;;;;;;;;5075341;28;20456;-68
2024/04/04 11:34:03;;;;;;;56.67;2.50;;;;;;;;;;5074517;28;20460;-68
2024/04/04 11:36:30;;;;;;;59.10;2.53;;;;;;;;;;5074910;28;20444;-68
2024/04/04 11:38:57;;;;;;;60.27;2.90;;;;;;;;;;5075190;28;20471;-68
2024/04/04 11:41:24;;;;;;;57.63;2.40;;;;;;;;;;5075367;28;20455;-68
2024/04/04 11:43:53;;;;;;;55.60;2.10;;;;;;;;;;5071254;28;20454;-68
2024/04/04 11:46:19;;;;;;;57.20;2.47;;;;;;;;;;5068669;28;20483;-68
2024/04/04 11:48:46;;;;;;;56.70;2.30;;;;;;;;;;5075168;28;20572;-68
2024/04/04 11:51:12;;;;;;;56.77;2.40;;;;;;;;;;5075329;28;20622;-68
2024/04/04 11:53:40;;;;;;;56.23;2.63;;;;;;;;;;5075187;28;20480;-68
2024/04/04 11:56:06;;;;;;;59.90;2.63;;;;;;;;;;5075794;28;20440;-68
2024/04/04 11:58:35;;;;;;;59.60;2.70;;;;;;;;;;5075336;28;20879;-68
2024/04/04 12:01:03;;;;;;;56.77;2.27;;;;;;;;;;5074915;28;20991;-68
2024/04/04 12:03:30;;;;;;;56.00;2.20;;;;;;;;;;5076159;28;20769;-68
2024/04/04 12:05:56;;;;;;;58.17;3.27;;;;;;;;;;5075455;28;20483;-68
2024/04/04 12:08:23;;;;;;;56.67;2.60;;;;;;;;;;5075239;28;20467;-68
2024/04/04 12:10:50;;;;;;;58.17;2.93;;;;;;;;;;5075421;28;20454;-68
2024/04/04 12:13:17;;;;;;;57.17;3.07;;;;;;;;;;5075338;28;20502;-68
2024/04/04 12:15:49;;;;;;;57.43;2.70;;;;;;;;;;5075530;28;20864;-68
2024/04/04 12:21:02;;;;;;;56.47;2.30;;;;;;;;;;5074352;28;20426;-68
2024/04/04 12:23:28;;;;;;;58.63;2.30;;;;;;;;;;5074828;28;20443;-68
2024/04/04 12:25:55;;;;;;;60.33;2.60;;;;;;;;;;5074944;28;20550;-68
2024/04/04 12:28:22;;;;;;;57.40;2.50;;;;;;;;;;5074898;28;20468;-68
2024/04/04 12:30:49;;;;;;;56.87;2.50;;;;;;;;;;5073661;28;20805;-68
2024/04/04 12:33:16;;;;;;;56.73;2.40;;;;;;;;;;5054139;28;20540;-68
2024/04/04 12:35:43;;;;;;;58.67;2.70;;;;;;;;;;5054633;28;20476;-68
2024/04/04 12:38:09;;;;;;;58.13;2.90;;;;;;;;;;5074251;28;20478;-68
2024/04/04 12:40:37;;;;;;;60.00;2.87;;;;;;;;;;5074241;28;20455;-68
2024/04/04 12:43:04;;;;;;;57.53;2.63;;;;;;;;;;5080703;28;20509;-68
2024/04/04 12:45:31;;;;;;;56.90;2.30;;;;;;;;;;5080655;28;20491;-68
2024/04/04 12:47:57;;;;;;;57.90;2.33;;;;;;;;;;5080705;28;20472;-67
2024/04/04 12:50:25;;;;;;;56.40;2.23;;;;;;;;;;5080327;28;20473;-68
2024/04/04 12:52:53;;;;;;;60.20;2.87;;;;;;;;;;5079721;28;20452;-68
2024/04/04 12:55:20;;;;;;;56.37;2.37;;;;;;;;;;5073408;28;20453;-68
2024/04/04 12:57:47;;;;;;;57.70;2.00;;;;;;;;;;5080608;28;20502;-68
2024/04/04 13:00:15;;;;;;;57.97;2.40;;;;;;;;;;5072529;28;20466;-68
2024/04/04 13:02:42;;;;;;;56.30;2.43;;;;;;;;;;5081290;28;20444;-68
2024/04/04 13:05:10;;;;;;;57.80;1.97;;;;;;;;;;5081082;28;20518;-68
2024/04/04 13:07:38;;;;;;;55.50;2.23;;;;;;;;;;5079572;28;20455;-68
2024/04/04 13:10:06;;;;;;;56.47;2.40;;;;;;;;;;5080267;28;20444;-68
2024/04/04 13:12:33;;;;;;;55.60;2.00;;;;;;;;;;5080076;28;20451;-68
2024/04/04 13:15:00;;;;;;;55.67;2.00;;;;;;;;;;5080459;28;20467;-68
2024/04/04 13:17:26;;;;;;;57.50;2.10;;;;;;;;;;5080138;28;20447;-68
2024/04/04 13:19:53;;;;;;;56.07;2.27;;;;;;;;;;5078837;28;20454;-68
2024/04/04 13:22:19;;;;;;;56.30;2.10;;;;;;;;;;5078707;28;20518;-68
2024/04/04 13:24:48;;;;;;;55.80;2.03;;;;;;;;;;5078248;28;20452;-68
2024/04/04 13:27:14;;;;;;;56.37;2.30;;;;;;;;;;5078788;28;20954;-68
2024/04/04 13:29:41;;;;;;;55.97;2.10;;;;;;;;;;5079822;28;20881;-67
2024/04/04 13:32:07;;;;;;;56.57;2.07;;;;;;;;;;5079133;28;20450;-67
2024/04/04 13:34:34;;;;;;;56.27;2.60;;;;;;;;;;5080100;28;21063;-67
2024/04/04 13:37:01;;;;;;;55.50;2.13;;;;;;;;;;5079502;28;20443;-67
2024/04/04 13:39:28;;;;;;;56.97;2.33;;;;;;;;;;5079065;28;20896;-68
2024/04/04 13:41:56;;;;;;;56.13;2.33;;;;;;;;;;5078238;28;20490;-67
2024/04/04 13:44:22;;;;;;;56.33;2.20;;;;;;;;;;5079072;28;20639;-68
2024/04/04 13:46:50;;;;;;;55.70;2.10;;;;;;;;;;5079231;28;20582;-67
2024/04/04 13:49:16;;;;;;;55.80;2.20;;;;;;;;;;5070629;28;20904;-68
2024/04/04 13:51:43;;;;;;;55.60;2.33;;;;;;;;;;5078646;28;20443;-67
2024/04/04 13:54:09;;;;;;;55.50;1.80;;;;;;;;;;5075204;28;20447;-68
2024/04/04 13:56:37;;;;;;;57.60;2.30;;;;;;;;;;5075752;28;20443;-68
2024/04/04 13:59:05;;;;;;;56.27;2.40;;;;;;;;;;5075541;28;20999;-68
2024/04/04 14:01:35;;;;;;;56.33;2.20;;;;;;;;;;5075188;28;20491;-68
2024/04/04 14:04:01;;;;;;;56.00;2.13;;;;;;;;;;5075354;28;20448;-68
2024/04/04 14:06:28;;;;;;;56.37;2.20;;;;;;;;;;5075660;28;20590;-68
2024/04/04 14:08:54;;;;;;;55.77;2.03;;;;;;;;;;5075685;28;20987;-67
2024/04/04 14:11:22;;;;;;;58.47;2.20;;;;;;;;;;5075425;28;20535;-68
2024/04/04 14:13:48;;;;;;;56.60;1.83;;;;;;;;;;5075341;28;20448;-68
2024/04/04 14:16:17;;;;;;;55.70;1.90;;;;;;;;;;5075259;28;20442;-68
2024/04/04 14:18:43;;;;;;;57.37;2.40;;;;;;;;;;5075392;28;20959;-68
2024/04/04 14:21:10;;;;;;;56.77;2.00;;;;;;;;;;5074733;28;20447;-68
2024/04/04 14:23:36;;;;;;;56.67;2.17;;;;;;;;;;5074906;28;20444;-68
2024/04/04 14:26:04;;;;;;;56.83;2.30;;;;;;;;;;5074905;28;20523;-68
2024/04/04 14:28:30;;;;;;;57.60;2.40;;;;;;;;;;5074463;28;20465;-68
2024/04/04 14:30:57;;;;;;;60.40;2.40;;;;;;;;;;5074380;28;20443;-67
2024/04/04 14:33:25;;;;;;;56.17;2.13;;;;;;;;;;5074415;28;20470;-68